ユジノサハリンスク の空港の天気 - METARとTAF

ホムトヴォ空港(ユジノサハリンスク) ( UHSS / UUS ) - ロシア ユジノサハリンスク
飛行場実況気象(Metar)
観測時間04/26 00:00 VLAT (04/25 14:00 UTC)
風向・風速東南東 1m/s
視程9000m
天気現象
なし
気温0℃
湿度100%
気圧1010hPa
METARUHSS 251400Z 12001MPS 9000 NSC 00/M00 Q1010 R19/70D NOSIG RMK QFE756/1008
過去の天気等 Google飛行場航空写真 Wunderground天気予報

過去48時間のMETAR

飛行場予報(TAF)
発表時間: 4/26 00:00 VLAT (4/25 14:00 UTC)
予報対象時間: 26日1時 VLAT ~ 27日7時 VLAT
風向・風速南 3m/s
視程10km以上
なし
26日10時 VLAT ~ 26日12時 VLAT に徐々に
風向・風速北北東 3m/s
全天の4割程度の積乱雲 雲底高度 910m
TAF UHSS 251400Z 2515/2621 18003MPS 9999 NSC
BECMG 2600/2602 02003MPS SCT030CB